Huvudsida
METAR-TAF:

METAR-TAF

Flygplatser :

Warszawa-Frédéric Chopins flygplats

Warszawa, Polen

latitud: 52-10N, longitud: 020-58E, höjd: 106 m

Aktuellt väderrapport

Denna rapport gjordes för 31 minuter sedan, klockan 19:00 UTC
Vind 6 kt från sydost
Temperatur 1°C
Fuktighet 93%
Tryck 1016 hPa
Sikt: 5000 m
fuktdis

METAR: EPWA 111900Z 14006KT 5000 BR NSC 01/00 Q1016 TEMPO 3000 BR

Tid: 20:31 (19:31 UTC)

Väderprognos

Denna rapport gjordes för 2 timmar och 1 minuter sedan, klockan 17:30 UTC
Prognos gäller från 11 kl. 18 UTC till 12 kl. 18 UTC
Vind 5 kt från sydost
Sikt 10 km eller mer
Inga moln under 1 500 m eller inga cumulonimbus
Temporärt
från 11 kl. 18 UTC till 12 kl. 05 UTC
Sikt: 3000 m
fuktdis

TAF: EPWA 111730Z 1118/1218 13005KT CAVOK TEMPO 1118/1205 3000 BR

Aktuella väderrapporter och prognoser från 4000 flygplatser (METAR- och TAF-rapporter).

De tillgängliga stationerna syns som gula och röda prickar på kartan.

För musen över prickarna för att se namnen på stationerna.

Klicka sedan för att få väderrapporter och prognoser.

För att ändra kartan: Klicka på de gröna knapparna med ett svart kors på för att zooma in; den gröna knappen med ett streck på för att zooma ut; eller på de gröna pilarna för angränsande kartor.


METAR-TAF: